createdAt,value
2022-09-04T00:00:09.351Z,158883.06
2022-09-04T00:03:19.130Z,158863.06
2022-09-04T00:05:53.785Z,158856.41
2022-09-04T00:08:58.785Z,158836.38
2022-09-04T00:11:32.532Z,158811.09
2022-09-04T00:14:08.153Z,158788.41
2022-09-04T00:17:00.416Z,158780.41
2022-09-04T00:19:36.321Z,158711.06
2022-09-04T00:22:19.531Z,158709.75
2022-09-04T00:24:55.262Z,158695.09
2022-09-04T00:27:28.244Z,158687.09
2022-09-04T00:30:03.433Z,158676.44
2022-09-04T00:32:45.977Z,158669.75
2022-09-04T00:35:15.737Z,158648.44
2022-09-04T00:37:48.598Z,158620.47
2022-09-04T00:40:26.019Z,158600.53
2022-09-04T00:43:23.313Z,158576.53
2022-09-04T00:46:18.233Z,158561.88
2022-09-04T00:49:11.373Z,158544.59
2022-09-04T00:51:46.717Z,158528.56
2022-09-04T00:54:35.591Z,158528.56
2022-09-04T00:57:21.953Z,158517.94
2022-09-04T01:00:13.538Z,158512.63
2022-09-04T01:03:04.179Z,158497.97
2022-09-04T01:05:37.550Z,158471.31
2022-09-04T01:08:29.551Z,158438.06
2022-09-04T01:11:21.829Z,158431.41
2022-09-04T01:13:55.281Z,158436.72
2022-09-04T01:16:22.415Z,158436.72
2022-09-04T01:19:13.826Z,158406.09
2022-09-04T01:22:19.294Z,158418.09
2022-09-04T01:24:54.164Z,158411.44
2022-09-04T01:27:43.539Z,158391.47
2022-09-04T01:30:14.017Z,158375.50
2022-09-04T01:33:00.098Z,158359.50
2022-09-04T01:36:05.035Z,158358.19
2022-09-04T01:38:58.095Z,158346.19
2022-09-04T01:41:53.231Z,158331.53
2022-09-04T01:44:20.645Z,158332.91
2022-09-04T01:46:53.873Z,158331.53
2022-09-04T01:49:21.667Z,158336.88
2022-09-04T01:52:08.602Z,158331.53
2022-09-04T01:54:55.077Z,158336.88
2022-09-04T01:57:40.829Z,158331.53
2022-09-04T02:00:12.471Z,158334.25
2022-09-04T02:02:42.594Z,158324.88
2022-09-04T02:05:21.224Z,158310.25
2022-09-04T02:07:51.945Z,158287.63
2022-09-04T02:10:39.277Z,158283.69
2022-09-04T02:13:22.480Z,158274.31
2022-09-04T02:16:14.871Z,158285.00
2022-09-04T02:19:17.965Z,158286.31
2022-09-04T02:22:12.954Z,158278.34
2022-09-04T02:24:53.579Z,158280.97
2022-09-04T02:27:45.589Z,158287.63
2022-09-04T02:30:15.656Z,158290.28
2022-09-04T02:33:06.158Z,158288.97
2022-09-04T02:35:41.721Z,158265.03
2022-09-04T02:38:16.434Z,158262.38
2022-09-04T02:40:51.480Z,158259.69
2022-09-04T02:43:30.389Z,158247.69
2022-09-04T02:46:03.552Z,158246.38
2022-09-04T02:48:53.126Z,158245.06
2022-09-04T02:51:32.880Z,158239.72
2022-09-04T02:54:31.889Z,158233.06
2022-09-04T02:57:44.542Z,158227.78
2022-09-04T03:00:21.225Z,158223.78
2022-09-04T03:03:00.070Z,158217.13
2022-09-04T03:05:33.600Z,158215.78
2022-09-04T03:08:00.836Z,158197.16
2022-09-04T03:11:05.179Z,158175.88
2022-09-04T03:13:39.160Z,158177.19
2022-09-04T03:16:44.285Z,158171.91
2022-09-04T03:19:37.921Z,158182.53
2022-09-04T03:22:13.689Z,158170.53
2022-09-04T03:25:18.700Z,158161.25
2022-09-04T03:27:46.751Z,158145.28
2022-09-04T03:30:14.866Z,158177.19
2022-09-04T03:33:24.770Z,158181.19
2022-09-04T03:36:08.005Z,158183.84
2022-09-04T03:39:04.472Z,158185.22
2022-09-04T03:42:17.055Z,158186.53
2022-09-04T03:45:16.105Z,158179.88
2022-09-04T03:48:02.235Z,158177.19
2022-09-04T03:50:41.944Z,158165.25
2022-09-04T03:53:27.744Z,158163.88
2022-09-04T03:56:13.819Z,158165.25
2022-09-04T03:58:59.646Z,158161.25
2022-09-04T04:01:35.729Z,158162.56
2022-09-04T04:04:24.827Z,158165.25
2022-09-04T04:07:07.956Z,158163.88
2022-09-04T04:09:54.194Z,158175.88
2022-09-04T04:12:39.474Z,158167.88
2022-09-04T04:15:07.070Z,158166.56
2022-09-04T04:18:02.346Z,158171.91
2022-09-04T04:20:40.607Z,158171.91
2022-09-04T04:23:19.073Z,158178.56
2022-09-04T04:26:24.220Z,158197.16
2022-09-04T04:29:02.873Z,158209.16
2022-09-04T04:32:10.541Z,158225.09
2022-09-04T04:34:49.985Z,158246.38
2022-09-04T04:37:50.599Z,158310.25
2022-09-04T04:40:36.569Z,158383.50
2022-09-04T04:43:36.810Z,158474.03
2022-09-04T04:46:42.514Z,158584.50
2022-09-04T04:49:28.737Z,158673.78
2022-09-04T04:52:27.280Z,158765.72
2022-09-04T04:55:32.487Z,158883.06
2022-09-04T04:58:20.774Z,158997.69
2022-09-04T05:01:05.281Z,159083.03
2022-09-04T05:03:54.444Z,159239.09
2022-09-04T05:06:40.877Z,159364.59
2022-09-04T05:09:26.687Z,159495.44
2022-09-04T05:12:11.680Z,159600.94
2022-09-04T05:14:50.842Z,159710.47
2022-09-04T05:17:40.967Z,159801.34
2022-09-04T05:20:38.246Z,159906.91
2022-09-04T05:23:36.726Z,159993.78
2022-09-04T05:26:23.398Z,160084.75
2022-09-04T05:29:05.515Z,160158.34
2022-09-04T05:31:56.496Z,160206.50
2022-09-04T05:34:30.151Z,160282.69
2022-09-04T05:37:12.917Z,160357.66
2022-09-04T05:40:05.419Z,160419.25
2022-09-04T05:42:45.388Z,160488.88
2022-09-04T05:45:37.582Z,160574.53
2022-09-04T05:48:19.381Z,160653.50
2022-09-04T05:51:05.903Z,160713.81
2022-09-04T05:54:10.904Z,160770.06
2022-09-04T05:56:53.419Z,160845.09
2022-09-04T05:59:45.245Z,160892.00
2022-09-04T06:02:37.722Z,160950.94
2022-09-04T06:05:23.704Z,160967.00
2022-09-04T06:08:09.801Z,161046.09
2022-09-04T06:10:58.792Z,161097.09
2022-09-04T06:14:04.449Z,161115.81
2022-09-04T06:17:09.095Z,161198.94
2022-09-04T06:19:39.624Z,161252.66
2022-09-04T06:22:28.580Z,161330.38
2022-09-04T06:25:04.785Z,161393.44
2022-09-04T06:27:55.374Z,161433.69
2022-09-04T06:30:25.736Z,161452.47
2022-09-04T06:32:58.898Z,161469.91
2022-09-04T06:35:48.042Z,161502.16
2022-09-04T06:38:15.376Z,161550.47
2022-09-04T06:41:08.767Z,161538.38
2022-09-04T06:43:37.929Z,161600.13
2022-09-04T06:46:19.006Z,161636.38
2022-09-04T06:49:00.305Z,161640.38
2022-09-04T06:51:53.724Z,161691.34
2022-09-04T06:54:39.778Z,161743.78
2022-09-04T06:57:14.858Z,161785.41
2022-09-04T07:00:15.315Z,161809.56
2022-09-04T07:02:58.176Z,161743.78
2022-09-04T07:05:32.644Z,161770.66
2022-09-04T07:08:00.371Z,161763.94
2022-09-04T07:10:34.719Z,161767.94
2022-09-04T07:13:04.992Z,161833.75
2022-09-04T07:16:02.726Z,161878.06
2022-09-04T07:19:07.953Z,161902.19
2022-09-04T07:22:18.422Z,161888.78
2022-09-04T07:25:25.258Z,161899.53
2022-09-04T07:28:06.421Z,161904.91
2022-09-04T07:30:42.263Z,161841.81
2022-09-04T07:33:31.987Z,161855.22
2022-09-04T07:36:16.834Z,161884.75
2022-09-04T07:39:15.605Z,161821.66
2022-09-04T07:41:46.290Z,161861.94
2022-09-04T07:44:54.887Z,161875.34
2022-09-04T07:47:35.649Z,161891.47
2022-09-04T07:50:13.943Z,161821.66
2022-09-04T07:53:05.504Z,161831.03
2022-09-04T07:55:51.862Z,161808.22
2022-09-04T07:58:50.204Z,161871.34
2022-09-04T08:01:42.106Z,161915.63
2022-09-04T08:04:35.433Z,161929.06
2022-09-04T08:07:11.498Z,161954.59
2022-09-04T08:09:55.550Z,161915.63
2022-09-04T08:12:45.789Z,161900.88
2022-09-04T08:15:21.967Z,161962.72
2022-09-04T08:18:08.149Z,161933.13
2022-09-04T08:20:57.615Z,161931.72
2022-09-04T08:23:32.586Z,161969.44
2022-09-04T08:26:14.746Z,162028.50
2022-09-04T08:29:20.513Z,162063.44
2022-09-04T08:32:10.136Z,161976.16
2022-09-04T08:35:04.660Z,161950.56
2022-09-04T08:38:00.303Z,161988.19
2022-09-04T08:41:08.615Z,162028.50
2022-09-04T08:43:55.665Z,162152.09
2022-09-04T08:46:50.479Z,162082.25
2022-09-04T08:49:31.134Z,161964.03
2022-09-04T08:52:01.590Z,161934.47
2022-09-04T08:54:48.538Z,162029.84
2022-09-04T08:57:53.498Z,162025.84
2022-09-04T09:00:21.995Z,162098.38
2022-09-04T09:03:15.847Z,162166.91
2022-09-04T09:06:06.892Z,162164.19
2022-09-04T09:08:54.658Z,162111.81
2022-09-04T09:11:59.635Z,161993.59
2022-09-04T09:15:04.894Z,161981.47
2022-09-04T09:17:58.595Z,161903.53
2022-09-04T09:20:32.297Z,161857.91
2022-09-04T09:23:22.030Z,161910.25
2022-09-04T09:26:06.778Z,161926.41
2022-09-04T09:29:13.320Z,161891.47
2022-09-04T09:32:32.492Z,161912.97
2022-09-04T09:35:03.228Z,161986.88
2022-09-04T09:38:07.155Z,162055.38
2022-09-04T09:41:06.541Z,162115.81
2022-09-04T09:44:11.408Z,162099.72
2022-09-04T09:47:02.472Z,161990.91
2022-09-04T09:49:42.171Z,161960.00
2022-09-04T09:52:31.955Z,161934.47
2022-09-04T09:55:18.052Z,161938.44
2022-09-04T09:57:58.766Z,161918.31
2022-09-04T10:00:33.952Z,161966.72
2022-09-04T10:03:39.136Z,162013.75
2022-09-04T10:06:37.345Z,161988.19
2022-09-04T10:09:37.664Z,161902.19
2022-09-04T10:12:11.117Z,161860.56
2022-09-04T10:15:09.858Z,161882.06
2022-09-04T10:17:52.270Z,161976.16
2022-09-04T10:20:48.082Z,162002.97
2022-09-04T10:23:33.856Z,162029.84
2022-09-04T10:26:23.985Z,162029.84
2022-09-04T10:29:29.098Z,162009.69
2022-09-04T10:32:28.003Z,162110.47
2022-09-04T10:35:09.672Z,162162.84
2022-09-04T10:38:14.762Z,162109.09
2022-09-04T10:41:19.894Z,161993.59
2022-09-04T10:44:16.480Z,161894.16
2022-09-04T10:46:49.900Z,161853.84
2022-09-04T10:49:41.967Z,161802.84
2022-09-04T10:52:30.518Z,161785.41
2022-09-04T10:55:07.102Z,161813.59
2022-09-04T10:57:53.315Z,161892.81
2022-09-04T11:00:22.434Z,161896.81
2022-09-04T11:03:08.538Z,161883.44
2022-09-04T11:06:00.244Z,161872.66
2022-09-04T11:09:00.728Z,161879.38
2022-09-04T11:11:31.799Z,161886.09
2022-09-04T11:14:36.108Z,161923.69
2022-09-04T11:17:34.162Z,161921.03
2022-09-04T11:20:36.575Z,162015.06
2022-09-04T11:23:19.334Z,162099.72
2022-09-04T11:26:19.012Z,162150.75
2022-09-04T11:29:13.140Z,162138.69
2022-09-04T11:32:03.128Z,162106.44
2022-09-04T11:34:36.850Z,162117.19
2022-09-04T11:37:33.639Z,162153.47
2022-09-04T11:40:38.926Z,162127.91
2022-09-04T11:43:37.443Z,162097.03
2022-09-04T11:46:29.428Z,162099.72
2022-09-04T11:49:18.357Z,162105.09
2022-09-04T11:52:24.171Z,162086.28
2022-09-04T11:54:57.536Z,162055.38
2022-09-04T11:57:49.941Z,162068.81
2022-09-04T12:00:18.811Z,162090.31
2022-09-04T12:03:13.223Z,162133.31
2022-09-04T12:06:05.228Z,162125.25
2022-09-04T12:08:47.807Z,162144.03
2022-09-04T12:11:36.999Z,162145.38
2022-09-04T12:14:19.799Z,162176.31
2022-09-04T12:17:15.708Z,162180.34
2022-09-04T12:20:24.299Z,162199.19
2022-09-04T12:23:29.138Z,162256.97
2022-09-04T12:26:34.225Z,162312.06
2022-09-04T12:29:20.397Z,162369.88
2022-09-04T12:32:16.037Z,162351.03
2022-09-04T12:35:08.332Z,162223.34
2022-09-04T12:37:54.466Z,162203.25
2022-09-04T12:40:40.537Z,162299.97
2022-09-04T12:43:17.423Z,162379.25
2022-09-04T12:46:06.266Z,162422.38
2022-09-04T12:49:11.414Z,162451.94
2022-09-04T12:51:49.786Z,162478.81
2022-09-04T12:54:34.997Z,162516.47
2022-09-04T12:57:24.567Z,162524.53
2022-09-04T13:00:15.640Z,162453.28
2022-09-04T13:03:05.052Z,162372.59
2022-09-04T13:06:17.284Z,162310.75
2022-09-04T13:08:47.623Z,162286.53
2022-09-04T13:11:22.718Z,162236.78
2022-09-04T13:14:14.772Z,162212.63
2022-09-04T13:17:12.263Z,162203.25
2022-09-04T13:20:01.211Z,162209.97
2022-09-04T13:22:58.119Z,162170.91
2022-09-04T13:25:31.787Z,162183.06
2022-09-04T13:28:21.310Z,162141.34
2022-09-04T13:31:16.630Z,162119.88
2022-09-04T13:34:06.738Z,162115.81
2022-09-04T13:36:54.314Z,162135.97
2022-09-04T13:39:24.868Z,162145.38
2022-09-04T13:42:14.134Z,162074.16
2022-09-04T13:45:00.067Z,162086.28
2022-09-04T13:47:35.676Z,162091.66
2022-09-04T13:50:33.552Z,162109.09
2022-09-04T13:53:18.401Z,162149.41
2022-09-04T13:56:09.916Z,162195.13
2022-09-04T13:58:47.743Z,162161.53
2022-09-04T14:01:21.773Z,162165.53
2022-09-04T14:04:11.478Z,162123.88
2022-09-04T14:06:39.196Z,162098.38
2022-09-04T14:09:07.319Z,162106.44
2022-09-04T14:11:58.542Z,162119.88
2022-09-04T14:15:05.599Z,162131.97
2022-09-04T14:17:45.599Z,162133.31
2022-09-04T14:20:28.418Z,162189.78
2022-09-04T14:23:22.590Z,162153.47
2022-09-04T14:26:06.681Z,162141.34
2022-09-04T14:28:56.924Z,162162.84
2022-09-04T14:31:40.392Z,162177.69
2022-09-04T14:34:28.714Z,162145.38
2022-09-04T14:37:08.018Z,162131.97
2022-09-04T14:39:38.416Z,162125.25
2022-09-04T14:42:58.447Z,162122.53
2022-09-04T14:46:06.995Z,162067.50
2022-09-04T14:48:40.699Z,162091.66
2022-09-04T14:51:15.619Z,162040.63
2022-09-04T14:53:51.971Z,162016.41
2022-09-04T14:56:24.738Z,162007.03
2022-09-04T14:58:58.386Z,161982.88
2022-09-04T15:01:26.607Z,161984.19
2022-09-04T15:04:06.567Z,161982.88
2022-09-04T15:07:07.483Z,161981.47
2022-09-04T15:09:38.089Z,161922.34
2022-09-04T15:12:26.147Z,161916.97
2022-09-04T15:15:15.989Z,161926.41
2022-09-04T15:17:52.752Z,161907.59
2022-09-04T15:20:25.705Z,161896.81
2022-09-04T15:23:13.386Z,161923.69
2022-09-04T15:26:06.018Z,161923.69
2022-09-04T15:28:44.495Z,161931.72
2022-09-04T15:31:35.707Z,161931.72
2022-09-04T15:34:05.899Z,161902.19
2022-09-04T15:36:36.345Z,161887.44
2022-09-04T15:41:50.117Z,161847.13
2022-09-04T15:44:31.787Z,161867.28
2022-09-04T15:47:07.461Z,161857.91
2022-09-04T15:49:43.549Z,161835.09
2022-09-04T15:52:49.086Z,161792.13
2022-09-04T15:55:35.619Z,161797.47
2022-09-04T15:58:20.224Z,161784.06
2022-09-04T16:01:22.980Z,161754.50
2022-09-04T16:04:17.616Z,161734.41
2022-09-04T16:07:20.512Z,161698.06
2022-09-04T16:09:58.615Z,161667.22
2022-09-04T16:12:31.070Z,161643.06
2022-09-04T16:15:04.052Z,161609.50
2022-09-04T16:17:32.653Z,161608.19
2022-09-04T16:20:47.096Z,161557.19
2022-09-04T16:23:17.281Z,161530.34
2022-09-04T16:25:52.953Z,161494.13
2022-09-04T16:28:26.042Z,161499.47
2022-09-04T16:30:59.172Z,161484.66
2022-09-04T16:33:31.796Z,161464.53
2022-09-04T16:36:06.072Z,161472.63
2022-09-04T16:38:57.373Z,161435.00
2022-09-04T16:41:32.486Z,161413.56
2022-09-04T16:44:25.832Z,161402.84
2022-09-04T16:47:05.991Z,161377.34
2022-09-04T16:49:55.315Z,161353.22
2022-09-04T16:52:34.524Z,161337.09
2022-09-04T16:55:35.603Z,161294.19
2022-09-04T16:58:04.321Z,161300.88
2022-09-04T17:00:47.139Z,161279.44
2022-09-04T17:03:21.409Z,161260.69
2022-09-04T17:05:53.606Z,161223.06
2022-09-04T17:08:27.256Z,161236.53
2022-09-04T17:11:14.280Z,161216.34
2022-09-04T17:13:54.466Z,161168.13
2022-09-04T17:16:24.374Z,161178.81
2022-09-04T17:18:54.478Z,161160.03
2022-09-04T17:23:25.943Z,161152.00
2022-09-04T17:28:59.188Z,161131.88
2022-09-04T17:29:14.610Z,161101.06
2022-09-04T17:31:07.216Z,161070.25
2022-09-04T17:40:31.860Z,161038.06
2022-09-04T17:40:37.844Z,161004.56
2022-09-04T17:40:43.589Z,160996.53
2022-09-04T17:43:21.893Z,160981.78
2022-09-04T17:46:16.476Z,160942.91
2022-09-04T17:48:45.156Z,160930.81
2022-09-04T17:51:21.916Z,160916.09
2022-09-04T17:53:52.140Z,160908.06
2022-09-04T17:56:42.338Z,160886.63
2022-09-04T17:59:12.692Z,160874.53
2022-09-04T18:01:45.585Z,160858.47
2022-09-04T18:04:47.279Z,160849.06
2022-09-04T18:08:06.905Z,160851.78
2022-09-04T18:10:32.667Z,160833.00
2022-09-04T18:13:37.512Z,160820.94
2022-09-04T18:16:27.204Z,160808.94
2022-09-04T18:19:15.260Z,160811.59
2022-09-04T18:21:53.930Z,160804.88
2022-09-04T18:24:40.168Z,160798.19
2022-09-04T18:27:19.213Z,160790.16
2022-09-04T18:33:17.992Z,160778.09
2022-09-04T18:37:18.387Z,160751.34
2022-09-04T18:37:20.893Z,160736.59
2022-09-04T18:39:38.966Z,160719.16
2022-09-04T18:50:37.219Z,160696.41
2022-09-04T18:50:40.966Z,160719.16
2022-09-04T18:50:53.389Z,160676.28
2022-09-04T18:51:20.715Z,160685.69
2022-09-04T18:53:55.618Z,160689.72
2022-09-04T18:56:29.578Z,160687.06
2022-09-04T18:59:01.519Z,160685.69
2022-09-04T19:01:40.395Z,160672.22
2022-09-04T19:04:45.444Z,160662.88
2022-09-04T19:07:31.910Z,160662.88
2022-09-04T19:10:31.100Z,160654.84
2022-09-04T19:13:29.812Z,160654.84
2022-09-04T19:16:05.908Z,160638.78
2022-09-04T19:18:46.065Z,160633.44
2022-09-04T19:21:23.299Z,160606.63
2022-09-04T19:24:15.355Z,160589.25
2022-09-04T19:26:45.397Z,160557.09
2022-09-04T19:29:27.382Z,160558.44
2022-09-04T19:32:00.709Z,160561.13
2022-09-04T19:34:49.273Z,160546.41
2022-09-04T19:40:49.125Z,160526.31
2022-09-04T19:45:57.804Z,160518.31
2022-09-04T19:46:17.428Z,160534.34
2022-09-04T19:47:08.545Z,160538.41
2022-09-04T19:53:19.840Z,160543.72
2022-09-04T19:53:36.388Z,160515.59
2022-09-04T19:56:18.982Z,160523.63
2022-09-04T19:58:52.676Z,160510.28
2022-09-04T20:01:30.732Z,160500.88
2022-09-04T20:04:11.297Z,160491.53
2022-09-04T20:06:51.286Z,160474.09
2022-09-04T20:09:34.762Z,160492.84
2022-09-04T20:12:14.823Z,160475.47
2022-09-04T20:15:11.758Z,160435.31
2022-09-04T20:18:03.969Z,160432.66
2022-09-04T20:20:56.390Z,160416.56
2022-09-04T20:23:33.851Z,160399.19
2022-09-04T20:26:13.620Z,160401.84
2022-09-04T20:28:51.189Z,160365.66
2022-09-04T20:31:35.354Z,160368.31
2022-09-04T20:34:21.628Z,160373.69
2022-09-04T20:36:54.574Z,160368.31
2022-09-04T20:39:35.487Z,160344.25
2022-09-04T20:42:10.138Z,160372.34
2022-09-04T20:44:44.500Z,160387.13
2022-09-04T20:52:45.080Z,160355.00
2022-09-04T20:52:53.513Z,160342.94
2022-09-04T20:54:04.484Z,160368.31
2022-09-04T20:59:47.056Z,160342.94
2022-09-04T21:03:08.848Z,160333.59
2022-09-04T21:03:30.127Z,160320.19
2022-09-04T21:06:11.166Z,160317.50
2022-09-04T21:08:45.955Z,160332.19
2022-09-04T21:11:39.483Z,160290.72
2022-09-04T21:14:12.020Z,160282.69
2022-09-04T21:16:52.214Z,160264.00
2022-09-04T21:19:51.209Z,160250.63
2022-09-04T21:22:56.943Z,160226.50
2022-09-04T21:25:42.271Z,160206.50
2022-09-04T21:28:31.576Z,160222.53
2022-09-04T21:31:01.955Z,160218.50
2022-09-04T21:33:32.280Z,160185.09
2022-09-04T21:36:26.942Z,160150.31
2022-09-04T21:39:10.357Z,160138.28
2022-09-04T21:41:56.219Z,160115.53
2022-09-04T21:45:03.045Z,160092.78
2022-09-04T21:47:52.381Z,160112.84
2022-09-04T21:50:31.878Z,160104.81
2022-09-04T21:53:24.200Z,160068.72
2022-09-04T22:00:56.208Z,160055.34
2022-09-04T22:02:41.129Z,160045.97
2022-09-04T22:03:03.091Z,160045.97
2022-09-04T22:05:43.431Z,160008.53
2022-09-04T22:13:16.141Z,160001.84
2022-09-04T22:13:40.445Z,159980.47
2022-09-04T22:14:58.398Z,159953.72
2022-09-04T22:18:03.300Z,159948.34
2022-09-04T22:21:01.974Z,159961.72
2022-09-04T22:23:48.155Z,159937.63
2022-09-04T22:26:23.922Z,159926.97
2022-09-04T22:29:39.517Z,159898.91
2022-09-04T22:32:32.382Z,159893.53
2022-09-04T22:35:21.166Z,159869.50
2022-09-04T22:38:26.279Z,159858.78
2022-09-04T22:41:31.128Z,159838.75
2022-09-04T22:44:41.209Z,159836.09
2022-09-04T22:47:39.252Z,159821.41
2022-09-04T22:50:10.055Z,159805.38
2022-09-04T22:52:53.623Z,159785.31
2022-09-04T22:56:23.145Z,159778.63
2022-09-04T22:58:29.421Z,159757.25
2022-09-04T23:01:36.886Z,159749.25
2022-09-04T23:04:30.111Z,159723.84
2022-09-04T23:11:15.540Z,159707.84
2022-09-04T23:13:56.779Z,159681.06
2022-09-04T23:13:59.149Z,159691.81
2022-09-04T23:16:53.308Z,159673.06
2022-09-04T23:26:31.356Z,159649.03
2022-09-04T23:26:49.988Z,159614.28
2022-09-04T23:26:58.314Z,159578.19
2022-09-04T23:28:35.673Z,159550.19
2022-09-04T23:31:37.449Z,159515.47
2022-09-04T23:34:50.793Z,159494.13
2022-09-04T23:38:24.779Z,159475.41
2022-09-04T23:41:13.747Z,159451.34
2022-09-04T23:44:34.576Z,159436.66
2022-09-04T23:47:20.521Z,159401.97
2022-09-04T23:50:41.611Z,159367.31
2022-09-04T23:53:58.101Z,159347.28
2022-09-04T23:56:46.803Z,159332.59
2022-09-04T23:59:59.801Z,159315.22
